Philadelphia, Pennsylvania
Traffic Map
Current Weather Conditions
Philadelphia, Pennsylvania
Overcast
Overcast
79°
Feels Like: 82°
Wind Chill: 79° Ceiling: 2500
Heat Index: 82° Visibility: 10mi
Dew Point: 70° Wind: 13mph
Humidity: 74% Direction: 260° (W)
Pressure: 29.74in Gusts: 0mph
Raw Report DataKPHL 230712Z 26011KT 10SM SCT018 OVC025 26/21 A2974 RMK AO2 T02610211 $
Traffic Incident Summary
Active as of:
Severity:
Category:
InformationThere was an issue retrieving the traffic information for this location. Please try a different location or try again shortly.
Advertisements
Track Severe Weather on mobile